FranceFixed distance
Luchon Aneto Trail - L'Ultra Lat
8 Jul2018
Distance
85km
Finishers
9084 men6 women
Winning time
10:20:53h
Median pace
5.34km/h
Pace distribution
90 finishers · 4.32–8.21 km/h · mean 5.56
Every finisher ran the same 85 km course, so these paces are directly comparable.
Histogram of finisher pace. 90 finishers ranged from 4.32 to 8.21 kilometres per hour, with a mean of 5.56 and a median of 5.34. The busiest band is 5.0 to 5.5 kilometres per hour, with 29 finishers.
Results
Ranks 1–50 of 90
| Rank | Runner | Time | Pace | Cat. | Placing |
|---|---|---|---|---|---|
| 1 | Aloña Mendi | 10:20:53h | 8.21 | M35 | 1st M · 1st M35 |
| 2 | Pyrénées Trail Session | 11:34:46h | 7.34 | M35 | 2nd M · 2nd M35 |
| 3 | *Fargues | 11:34:48h | 7.34 | M35 | 3rd M · 3rd M35 |
| 4 | Activeplus4U - Mikael ... | 11:45:45h | 7.23 | M23 | 4th M · 1st M23 |
| 5 | Acpa | 11:52:37h | 7.16 | M40 | 5th M · 1st M40 |
| 6 | Le Mourtis | 12:00:55h | 7.07 | M35 | 6th M · 4th M35 |
| 7 | Team Duf | 12:03:00h | 7.05 | M23 | 7th M · 2nd M23 |
| 8 | AC Matheysin | 12:06:38h | 7.02 | M23 | 8th M · 3rd M23 |
| 9 | *Lagardelle | 12:13:50h | 6.95 | M23 | 9th M · 4th M23 |
| 10 | Aclam | 12:15:04h | 6.94 | M23 | 10th M · 5th M23 |
| 11 | Freerun 86 | 12:26:37h | 6.83 | M40 | 11th M · 2nd M40 |
| 12 | Albi Triathlon | 12:41:21h | 6.70 | M23 | 12th M · 6th M23 |
| 13 | Les Galopins Du Cagire | 12:49:57h | 6.62 | M45 | 13th M · 1st M45 |
| 14 | *Toulouse | 13:06:04h | 6.49 | M40 | 14th M · 3rd M40 |
| 15 | Marmota Taldea | 13:06:21h | 6.49 | M23 | 15th M · 7th M23 |
| 16 | Occitan Triath’Long | 13:06:22h | 6.49 | M35 | 16th M · 5th M35 |
| 17 | *Saint Chef | 13:10:41h | 6.45 | M40 | 17th M · 4th M40 |
| 18 | SLC | 13:11:57h | 6.44 | M35 | 18th M · 6th M35 |
| 19 | *Sainte Clotilde | 13:20:15h | 6.37 | M40 | 19th M · 5th M40 |
| 20 | Athle Lesparre | 13:24:15h | 6.34 | M35 | 20th M · 7th M35 |
| 21 | Portet Athletic Club | 13:25:00h | 6.33 | M45 | 21st M · 2nd M45 |
| 22 | *Castillon De Saint Ma... | 13:32:28h | 6.28 | M35 | 22nd M · 8th M35 |
| 23 | Tyrosse | 13:56:38h | 6.10 | W23 | 1st F · 1st W23 |
| 24 | *Toulouse | 14:00:28h | 6.07 | M23 | 23rd M · 8th M23 |
| 25 | Wild Team Triathlon | 14:29:25h | 5.87 | M35 | 24th M · 9th M35 |
| 26 | *Pébées | 14:31:20h | 5.85 | M35 | 25th M · 10th M35 |
| 27 | *Souligne Flace | 14:34:43h | 5.83 | M40 | 26th M · 6th M40 |
| 28 | US Arnage | 14:34:44h | 5.83 | M40 | 27th M · 7th M40 |
| 29 | Team Seilh | 14:45:16h | 5.76 | M40 | 28th M · 8th M40 |
| 30 | Les Baladins De Jardres | 14:56:49h | 5.69 | M50 | 29th M · 1st M50 |
| 31 | Joggers du Plateau | 15:02:18h | 5.65 | M45 | 30th M · 3rd M45 |
| 32 | Urtxintxak | 15:15:19h | 5.57 | M35 | 31st M · 11th M35 |
| 32 | Vo2Max | 15:15:19h | 5.57 | M23 | 31st M · 9th M23 |
| 34 | *Villeneuve Les Bouloc | 15:15:20h | 5.57 | M23 | 33rd M · 10th M23 |
| 35 | *Chemillé | 15:18:35h | 5.55 | M45 | 34th M · 4th M45 |
| 36 | *Castres | 15:18:54h | 5.55 | M40 | 35th M · 9th M40 |
| 37 | *Toulouse | 15:25:34h | 5.51 | M45 | 36th M · 5th M45 |
| 38 | *Aussonne | 15:31:42h | 5.47 | M35 | 37th M · 12th M35 |
| 39 | *Lyon | 15:35:46h | 5.45 | M23 | 38th M · 11th M23 |
| 40 | Le Mourtis | 15:38:44h | 5.43 | M45 | 39th M · 6th M45 |
| 41 | Les Zinzins Des Coteau... | 15:39:52h | 5.43 | W35 | 2nd F · 1st W35 |
| 42 | Cyclo Club Montebourg ... | 15:41:34h | 5.42 | M23 | 40th M · 12th M23 |
| 43 | *Realville | 15:43:18h | 5.41 | M40 | 41st M · 10th M40 |
| 44 | C.A.Caussadais | 15:47:28h | 5.38 | M55 | 42nd M · 1st M55 |
| 45 | Running Val D'Hyrome | 15:52:09h | 5.36 | M40 | 43rd M · 11th M40 |
| 46 | Running Val Dhyrome | 15:54:33h | 5.34 | W23 | 3rd F · 2nd W23 |
| 46 | Running Val Dhyrome | 15:54:33h | 5.34 | W23 | 3rd F · 2nd W23 |
| 48 | *Archiac | 15:56:21h | 5.33 | M40 | 44th M · 12th M40 |
| 49 | *Toulouse | 15:58:29h | 5.32 | M35 | 45th M · 13th M35 |
| 50 | *Larcan | 16:00:59h | 5.31 | M23 | 46th M · 13th M23 |
- 1Aloña Mendi1st M · 1st M35Time10:20:53hPace8.21Cat.M35
- 2Pyrénées Trail Session2nd M · 2nd M35Time11:34:46hPace7.34Cat.M35
- 3*Fargues3rd M · 3rd M35Time11:34:48hPace7.34Cat.M35
- 4Activeplus4U - Mikael ...4th M · 1st M23Time11:45:45hPace7.23Cat.M23
- 5Acpa5th M · 1st M40Time11:52:37hPace7.16Cat.M40
- 6Le Mourtis6th M · 4th M35Time12:00:55hPace7.07Cat.M35
- 7Team Duf7th M · 2nd M23Time12:03:00hPace7.05Cat.M23
- 8AC Matheysin8th M · 3rd M23Time12:06:38hPace7.02Cat.M23
- 9*Lagardelle9th M · 4th M23Time12:13:50hPace6.95Cat.M23
- 10Aclam10th M · 5th M23Time12:15:04hPace6.94Cat.M23
- 11Freerun 8611th M · 2nd M40Time12:26:37hPace6.83Cat.M40
- 12Albi Triathlon12th M · 6th M23Time12:41:21hPace6.70Cat.M23
- 13Les Galopins Du Cagire13th M · 1st M45Time12:49:57hPace6.62Cat.M45
- 14*Toulouse14th M · 3rd M40Time13:06:04hPace6.49Cat.M40
- 15Marmota Taldea15th M · 7th M23Time13:06:21hPace6.49Cat.M23
- 16Occitan Triath’Long16th M · 5th M35Time13:06:22hPace6.49Cat.M35
- 17*Saint Chef17th M · 4th M40Time13:10:41hPace6.45Cat.M40
- 18SLC18th M · 6th M35Time13:11:57hPace6.44Cat.M35
- 19*Sainte Clotilde19th M · 5th M40Time13:20:15hPace6.37Cat.M40
- 20Athle Lesparre20th M · 7th M35Time13:24:15hPace6.34Cat.M35
- 21Portet Athletic Club21st M · 2nd M45Time13:25:00hPace6.33Cat.M45
- 22*Castillon De Saint Ma...22nd M · 8th M35Time13:32:28hPace6.28Cat.M35
- 23Tyrosse1st F · 1st W23Time13:56:38hPace6.10Cat.W23
- 24*Toulouse23rd M · 8th M23Time14:00:28hPace6.07Cat.M23
- 25Wild Team Triathlon24th M · 9th M35Time14:29:25hPace5.87Cat.M35
- 26*Pébées25th M · 10th M35Time14:31:20hPace5.85Cat.M35
- 27*Souligne Flace26th M · 6th M40Time14:34:43hPace5.83Cat.M40
- 28US Arnage27th M · 7th M40Time14:34:44hPace5.83Cat.M40
- 29Team Seilh28th M · 8th M40Time14:45:16hPace5.76Cat.M40
- 30Les Baladins De Jardres29th M · 1st M50Time14:56:49hPace5.69Cat.M50
- 31Joggers du Plateau30th M · 3rd M45Time15:02:18hPace5.65Cat.M45
- 32Urtxintxak31st M · 11th M35Time15:15:19hPace5.57Cat.M35
- 32Vo2Max31st M · 9th M23Time15:15:19hPace5.57Cat.M23
- 34*Villeneuve Les Bouloc33rd M · 10th M23Time15:15:20hPace5.57Cat.M23
- 35*Chemillé34th M · 4th M45Time15:18:35hPace5.55Cat.M45
- 36*Castres35th M · 9th M40Time15:18:54hPace5.55Cat.M40
- 37*Toulouse36th M · 5th M45Time15:25:34hPace5.51Cat.M45
- 38*Aussonne37th M · 12th M35Time15:31:42hPace5.47Cat.M35
- 39*Lyon38th M · 11th M23Time15:35:46hPace5.45Cat.M23
- 40Le Mourtis39th M · 6th M45Time15:38:44hPace5.43Cat.M45
- 41Les Zinzins Des Coteau...2nd F · 1st W35Time15:39:52hPace5.43Cat.W35
- 42Cyclo Club Montebourg ...40th M · 12th M23Time15:41:34hPace5.42Cat.M23
- 43*Realville41st M · 10th M40Time15:43:18hPace5.41Cat.M40
- 44C.A.Caussadais42nd M · 1st M55Time15:47:28hPace5.38Cat.M55
- 45Running Val D'Hyrome43rd M · 11th M40Time15:52:09hPace5.36Cat.M40
- 46Running Val Dhyrome3rd F · 2nd W23Time15:54:33hPace5.34Cat.W23
- 46Running Val Dhyrome3rd F · 2nd W23Time15:54:33hPace5.34Cat.W23
- 48*Archiac44th M · 12th M40Time15:56:21hPace5.33Cat.M40
- 49*Toulouse45th M · 13th M35Time15:58:29hPace5.32Cat.M35
- 50*Larcan46th M · 13th M23Time16:00:59hPace5.31Cat.M23
Showing ranks 1–50 of 90